CDT,Max TemperatureF,Mean TemperatureF,Min TemperatureF,Max Dew PointF,MeanDew PointF,Min DewpointF,Max Humidity, Mean Humidity, Min Humidity, Max Sea Level PressureIn, Mean Sea Level PressureIn, Min Sea Level PressureIn, Max VisibilityMiles, Mean VisibilityMiles, Min VisibilityMiles, Max Wind SpeedMPH, Mean Wind SpeedMPH, Max Gust SpeedMPH,PrecipitationIn, CloudCover, Events, WindDirDegrees
2012-3-1,44,40,37,34,32,32,83,75,61,29.88,29.80,29.70,10,10,10,24,15,31,0.00,7,,262
2012-3-2,41,38,35,39,35,32,94,88,84,29.72,29.50,29.32,10,5,0,26,14,34,0.21,5,Rain-Snow,37
2012-3-3,34,34,33,28,26,25,78,74,69,29.84,29.74,29.67,10,10,4,25,20,38,0.00,8,Snow,273
2012-3-4,34,31,28,26,24,22,80,75,69,29.91,29.87,29.83,10,10,10,15,10,18,0.00,7,,297
2012-3-5,41,33,25,28,24,21,90,72,51,30.36,30.26,30.05,10,10,10,16,7,16,0.00,3,,265
2012-3-6,71,52,33,41,34,28,87,57,27,30.17,29.98,29.85,10,10,10,32,18,45,0.00,0,,179
2012-3-7,69,60,52,51,44,37,61,55,50,29.96,29.91,29.83,10,10,10,33,20,44,0.00,6,,189
2012-3-8,50,43,36,47,33,25,90,72,47,30.25,30.08,29.86,10,10,5,29,18,36,0.16,5,Rain,295
2012-3-9,43,37,31,29,17,10,70,45,29,30.55,30.46,30.26,10,10,10,22,14,26,0.00,0,,317
2012-3-10,62,46,30,30,24,20,69,48,28,30.47,30.36,30.20,10,10,10,24,15,30,0.00,0,,187
2012-3-11,68,52,37,44,33,28,75,50,25,30.26,30.19,30.05,10,10,10,22,10,28,0.00,1,,180
2012-3-12,67,60,54,58,54,49,92,79,63,29.96,29.83,29.76,10,8,4,25,17,34,0.12,7,Rain,209
2012-3-13,73,58,44,48,42,32,93,60,24,30.12,30.04,29.93,10,9,2,10,5,,0.00,0,,241
2012-3-14,79,67,55,60,54,46,89,65,45,30.02,29.97,29.90,10,10,7,24,13,33,0.03,1,,199
2012-3-15,80,70,60,62,59,56,89,71,47,30.02,29.98,29.94,10,10,10,15,10,18,0.00,1,Thunderstorm,231
2012-3-16,80,68,57,61,55,51,82,64,46,30.06,30.02,29.98,10,10,10,20,9,24,0.00,1,,202
2012-3-17,80,68,56,63,58,53,89,72,49,30.07,30.02,29.94,10,10,7,18,11,24,0.00,1,Thunderstorm,176
2012-3-18,80,68,57,60,56,51,88,65,44,30.05,30.00,29.92,10,10,4,20,10,28,0.03,2,Rain-Thunderstorm,176
2012-3-19,80,71,62,65,60,57,94,77,45,30.01,29.94,29.85,10,9,2,23,11,29,0.17,2,Rain-Thunderstorm,166
2012-3-20,82,72,61,59,52,48,77,52,31,30.01,29.95,29.90,10,10,7,31,15,39,0.00,0,,172
2012-3-21,83,73,63,57,54,50,73,51,31,30.08,30.02,29.99,10,10,10,23,14,30,0.00,1,,168
2012-3-22,75,69,63,61,56,51,84,63,51,30.08,30.04,30.00,10,10,7,18,11,25,0.00,2,Rain,160
2012-3-23,69,63,57,59,55,47,94,74,44,29.99,29.90,29.80,10,9,2,10,6,16,0.11,4,Rain-Thunderstorm,176
2012-3-24,67,58,48,55,51,47,95,82,59,29.90,29.85,29.79,10,8,0,13,5,,0.00,5,Fog,7
2012-3-25,75,64,52,57,53,49,94,70,41,30.05,30.01,29.95,10,8,2,12,6,17,0.00,6,,347
2012-3-26,53,46,38,48,34,29,84,66,46,30.35,30.27,30.12,10,10,5,22,16,30,0.09,8,Rain,72
2012-3-27,74,58,41,51,37,26,63,51,39,30.19,30.03,29.81,10,10,10,30,19,36,0.00,2,,165
2012-3-28,70,61,50,56,42,34,86,51,27,30.02,29.93,29.80,10,10,7,33,15,43,0.00,0,Thunderstorm,296
2012-3-29,57,48,38,39,36,33,84,65,47,30.13,30.04,29.97,10,10,5,18,8,24,0.00,1,,87
2012-3-30,61,51,41,51,45,34,82,74,67,29.92,29.76,29.68,10,10,7,18,12,25,0.01,6,Rain-Thunderstorm,14
2012-3-31,57,48,40,42,38,36,87,76,55,29.99,29.93,29.83,10,9,5,14,9,17,0.00,7,,95